Terminal Aerodrome Forecast
Issued by NWS Shreveport, LA

Home | Current Version | Previous Version | Text Only | Print | Product List | Glossary On
Versions: 1 2 3 4 5 6 7 8 9 10 11 12 13 14 15
000
FTUS44 KSHV 011400 AAA
TAFLFK
TAF AMD
KLFK 011413Z 0114/0212 31005KT P6SM FEW008 OVC019
      TEMPO 0114/0116 BKN008
     FM011600 31005KT P6SM OVC010
     FM011900 33006KT P6SM OVC018
     FM012200 33005KT P6SM BKN025
     FM020300 01004KT P6SM BKN015
     FM020900 02003KT 5SM BR OVC009=

USA.gov is the U.S. government's official web portal to all federal, state and local government web resources and services.